Kempston Hardwick, United Kingdom
Current Conditions -  °F | °C
As of 10:50 AM on Friday 31 Oct 2014 (Local Time) from EGTC Reporting Station
Clear Clear  
Wind Chill: 64°   Ceiling: Unl
Heat Index: 64°   Visibility: 6mi
Dew Point: 61°   Wind: 14mph
Humidity: 88%   Direction: 190°S
Pressure: 30"   Gusts: NA
Location:  52.09°N, 0.5°W
Report Text: EGTC 311050Z 19012KT 9000 NSC 18/16 Q1016
Loading
Personal Weather Stations






























Interactive Weather Map
Tropical Storm Tracking
New forecast layout! Learn more

10-Day Weather Forecast

Advertisements
Track Severe Weather on mobile